createdAt,value
2019-03-09T00:00:58.712Z,994.65
2019-03-09T00:01:58.704Z,994.58
2019-03-09T00:02:58.690Z,994.55
2019-03-09T00:03:58.697Z,994.54
2019-03-09T00:04:58.671Z,994.50
2019-03-09T00:05:58.657Z,994.47
2019-03-09T00:06:58.650Z,994.46
2019-03-09T00:07:58.662Z,994.43
2019-03-09T00:08:58.624Z,994.42
2019-03-09T00:09:58.620Z,994.40
2019-03-09T00:10:58.606Z,994.39
2019-03-09T00:11:58.594Z,994.36
2019-03-09T00:12:58.584Z,994.33
2019-03-09T00:13:58.597Z,994.31
2019-03-09T00:14:58.563Z,994.29
2019-03-09T00:15:58.552Z,994.16
2019-03-09T00:16:58.538Z,994.16
2019-03-09T00:17:58.525Z,994.19
2019-03-09T00:18:58.547Z,994.07
2019-03-09T00:19:58.508Z,994.03
2019-03-09T00:20:58.498Z,994.03
2019-03-09T00:21:58.493Z,994.01
2019-03-09T00:22:58.473Z,994.06
2019-03-09T00:23:58.467Z,994.05
2019-03-09T00:24:58.479Z,993.96
2019-03-09T00:25:58.445Z,993.94
2019-03-09T00:26:58.429Z,993.99
2019-03-09T00:27:58.422Z,993.98
2019-03-09T00:28:58.422Z,993.95
2019-03-09T00:29:58.397Z,993.94
2019-03-09T00:30:58.417Z,993.95
2019-03-09T00:31:58.457Z,993.93
2019-03-09T00:32:58.369Z,993.89
2019-03-09T00:33:58.362Z,993.91
2019-03-09T00:34:58.343Z,993.82
2019-03-09T00:35:58.334Z,993.93
2019-03-09T00:36:58.354Z,993.83
2019-03-09T00:37:58.310Z,993.87
2019-03-09T00:38:58.307Z,993.82
2019-03-09T00:39:58.294Z,993.81
2019-03-09T00:40:58.282Z,993.88
2019-03-09T00:41:58.269Z,993.84
2019-03-09T00:42:58.295Z,993.82
2019-03-09T00:43:58.251Z,993.78
2019-03-09T00:44:58.240Z,993.80
2019-03-09T00:45:58.238Z,993.76
2019-03-09T00:46:58.255Z,993.69
2019-03-09T00:47:58.206Z,993.62
2019-03-09T00:48:58.211Z,993.75
2019-03-09T00:49:58.181Z,993.67
2019-03-09T00:50:58.177Z,993.70
2019-03-09T00:51:58.165Z,993.74
2019-03-09T00:52:58.175Z,993.77
2019-03-09T00:53:58.153Z,993.90
2019-03-09T00:54:58.148Z,993.71
2019-03-09T00:55:58.119Z,993.66
2019-03-09T00:56:58.110Z,993.76
2019-03-09T00:57:58.102Z,993.79
2019-03-09T00:58:58.088Z,993.71
2019-03-09T00:59:58.100Z,993.64
2019-03-09T01:00:58.066Z,993.76
2019-03-09T01:01:58.059Z,993.66
2019-03-09T01:02:58.056Z,993.65
2019-03-09T01:03:58.037Z,993.65
2019-03-09T01:04:58.023Z,993.52
2019-03-09T01:05:58.034Z,993.56
2019-03-09T01:06:58.001Z,993.55
2019-03-09T01:07:57.996Z,993.53
2019-03-09T01:08:57.981Z,993.55
2019-03-09T01:09:57.967Z,993.49
2019-03-09T01:10:58.001Z,993.52
2019-03-09T01:11:57.960Z,993.58
2019-03-09T01:12:57.936Z,993.55
2019-03-09T01:13:57.924Z,993.49
2019-03-09T01:14:57.922Z,993.53
2019-03-09T01:15:57.934Z,993.49
2019-03-09T01:16:57.895Z,993.45
2019-03-09T01:17:57.888Z,993.39
2019-03-09T01:18:57.871Z,993.42
2019-03-09T01:19:57.861Z,993.48
2019-03-09T01:20:57.849Z,993.40
2019-03-09T01:21:57.864Z,993.50
2019-03-09T01:22:57.837Z,993.31
2019-03-09T01:23:57.824Z,993.40
2019-03-09T01:24:57.810Z,993.28
2019-03-09T01:25:57.800Z,993.30
2019-03-09T01:26:57.783Z,993.37
2019-03-09T01:27:57.792Z,993.33
2019-03-09T01:28:57.771Z,993.26
2019-03-09T01:29:57.758Z,993.21
2019-03-09T01:30:57.743Z,993.25
2019-03-09T01:31:57.737Z,993.18
2019-03-09T01:32:57.744Z,993.13
2019-03-09T01:33:57.728Z,993.19
2019-03-09T01:34:57.704Z,993.09
2019-03-09T01:35:57.709Z,993.10
2019-03-09T01:36:57.695Z,993.01
2019-03-09T01:37:57.678Z,993.03
2019-03-09T01:38:57.677Z,993.06
2019-03-09T01:39:57.650Z,993.02
2019-03-09T01:40:57.635Z,993.03
2019-03-09T01:41:57.625Z,993.00
2019-03-09T01:42:57.618Z,993.01
2019-03-09T01:43:57.631Z,993.06
2019-03-09T01:44:57.593Z,992.98
2019-03-09T01:45:57.582Z,992.96
2019-03-09T01:46:57.577Z,992.91
2019-03-09T01:47:57.563Z,992.92
2019-03-09T01:48:57.554Z,992.93
2019-03-09T01:49:57.562Z,992.92
2019-03-09T01:50:57.526Z,992.72
2019-03-09T01:51:57.521Z,992.74
2019-03-09T01:52:57.508Z,992.89
2019-03-09T01:53:57.498Z,992.86
2019-03-09T01:54:57.508Z,992.78
2019-03-09T01:55:57.494Z,992.75
2019-03-09T01:56:57.466Z,992.76
2019-03-09T01:57:57.459Z,992.71
2019-03-09T01:58:57.439Z,992.65
2019-03-09T01:59:57.432Z,992.69
2019-03-09T02:00:57.451Z,992.66
2019-03-09T02:01:57.416Z,992.68
2019-03-09T02:02:57.397Z,992.58
2019-03-09T02:03:57.388Z,992.61
2019-03-09T02:04:57.378Z,992.59
2019-03-09T02:05:57.367Z,992.57
2019-03-09T02:06:57.398Z,992.55
2019-03-09T02:07:57.349Z,992.54
2019-03-09T02:08:57.361Z,992.57
2019-03-09T02:09:57.330Z,992.53
2019-03-09T02:10:57.313Z,992.44
2019-03-09T02:11:57.304Z,992.39
2019-03-09T02:12:57.294Z,992.38
2019-03-09T02:13:57.287Z,992.34
2019-03-09T02:14:57.296Z,992.45
2019-03-09T02:15:57.288Z,992.31
2019-03-09T02:16:57.250Z,992.32
2019-03-09T02:17:57.237Z,992.31
2019-03-09T02:18:57.247Z,992.30
2019-03-09T02:19:57.224Z,992.28
2019-03-09T02:20:57.236Z,992.32
2019-03-09T02:21:57.203Z,992.24
2019-03-09T02:22:57.186Z,992.22
2019-03-09T02:23:57.181Z,992.28
2019-03-09T02:24:57.165Z,992.32
2019-03-09T02:25:57.168Z,992.28
2019-03-09T02:26:57.172Z,992.24
2019-03-09T02:27:57.134Z,992.25
2019-03-09T02:28:57.124Z,992.21
2019-03-09T02:29:57.119Z,992.24
2019-03-09T02:30:57.106Z,992.04
2019-03-09T02:31:57.089Z,992.09
2019-03-09T02:32:57.173Z,992.12
2019-03-09T02:33:57.072Z,992.07
2019-03-09T02:34:57.054Z,992.08
2019-03-09T02:35:57.051Z,992.04
2019-03-09T02:36:57.033Z,992.13
2019-03-09T02:37:57.033Z,992.03
2019-03-09T02:38:57.042Z,992.06
2019-03-09T02:39:57.006Z,991.86
2019-03-09T02:40:57.010Z,991.94
2019-03-09T02:41:56.987Z,991.85
2019-03-09T02:42:56.973Z,991.90
2019-03-09T02:43:56.961Z,992.16
2019-03-09T02:44:56.981Z,992.12
2019-03-09T02:45:56.941Z,991.95
2019-03-09T02:46:56.933Z,992.01
2019-03-09T02:47:56.924Z,991.90
2019-03-09T02:48:56.906Z,991.85
2019-03-09T02:49:56.907Z,991.97
2019-03-09T02:50:56.938Z,991.88
2019-03-09T02:51:56.880Z,992.00
2019-03-09T02:52:56.872Z,991.97
2019-03-09T02:53:56.857Z,991.96
2019-03-09T02:54:56.845Z,991.84
2019-03-09T02:55:56.860Z,991.98
2019-03-09T02:56:56.822Z,991.95
2019-03-09T02:57:56.810Z,991.90
2019-03-09T02:58:56.803Z,991.82
2019-03-09T02:59:56.818Z,991.88
2019-03-09T03:00:56.784Z,991.74
2019-03-09T03:01:56.773Z,992.00
2019-03-09T03:02:56.758Z,991.99
2019-03-09T03:03:56.779Z,991.94
2019-03-09T03:04:56.747Z,991.90
2019-03-09T03:05:56.745Z,991.89
2019-03-09T03:06:56.720Z,991.91
2019-03-09T03:07:56.706Z,991.91
2019-03-09T03:08:56.708Z,991.91
2019-03-09T03:09:56.683Z,991.87
2019-03-09T03:10:56.701Z,991.93
2019-03-09T03:11:56.665Z,991.83
2019-03-09T03:12:56.656Z,991.85
2019-03-09T03:13:56.643Z,991.84
2019-03-09T03:14:56.632Z,991.92
2019-03-09T03:15:56.634Z,991.90
2019-03-09T03:16:56.627Z,991.83
2019-03-09T03:17:56.611Z,992.03
2019-03-09T03:18:56.597Z,991.94
2019-03-09T03:19:56.579Z,991.88
2019-03-09T03:20:56.566Z,991.90
2019-03-09T03:21:56.554Z,991.88
2019-03-09T03:22:56.577Z,991.82
2019-03-09T03:23:56.543Z,991.79
2019-03-09T03:24:56.531Z,991.90
2019-03-09T03:25:56.511Z,991.88
2019-03-09T03:26:56.505Z,991.94
2019-03-09T03:27:56.492Z,991.81
2019-03-09T03:28:56.504Z,991.86
2019-03-09T03:29:56.476Z,991.90
2019-03-09T03:30:56.478Z,991.90
2019-03-09T03:31:56.487Z,991.89
2019-03-09T03:32:56.466Z,991.92
2019-03-09T03:33:56.429Z,991.89
2019-03-09T03:34:56.428Z,991.88
2019-03-09T03:35:56.402Z,991.92
2019-03-09T03:36:56.405Z,991.99
2019-03-09T03:37:56.390Z,991.78
2019-03-09T03:38:56.390Z,992.03
2019-03-09T03:39:56.360Z,992.09
2019-03-09T03:40:56.390Z,991.90
2019-03-09T03:41:56.334Z,991.92
2019-03-09T03:42:56.340Z,992.07
2019-03-09T03:43:56.347Z,992.01
2019-03-09T03:44:56.337Z,991.99
2019-03-09T03:45:56.302Z,992.06
2019-03-09T03:46:56.285Z,992.05
2019-03-09T03:47:56.278Z,991.99
2019-03-09T03:48:56.272Z,991.88
2019-03-09T03:49:56.250Z,991.94
2019-03-09T03:50:56.263Z,992.01
2019-03-09T03:51:56.235Z,992.06
2019-03-09T03:52:56.218Z,992.02
2019-03-09T03:53:56.211Z,991.97
2019-03-09T03:54:56.208Z,991.93
2019-03-09T03:55:56.219Z,991.93
2019-03-09T03:56:56.180Z,992.02
2019-03-09T03:57:56.169Z,991.87
2019-03-09T03:58:56.153Z,991.97
2019-03-09T03:59:56.144Z,991.99
2019-03-09T04:00:56.133Z,991.94
2019-03-09T04:01:56.140Z,991.93
2019-03-09T04:02:56.117Z,991.93
2019-03-09T04:03:56.146Z,991.88
2019-03-09T04:04:56.094Z,991.96
2019-03-09T04:05:56.085Z,991.95
2019-03-09T04:06:56.067Z,992.04
2019-03-09T04:07:56.060Z,991.98
2019-03-09T04:08:56.056Z,991.95
2019-03-09T04:09:56.061Z,991.98
2019-03-09T04:10:56.024Z,992.06
2019-03-09T04:11:56.025Z,991.89
2019-03-09T04:12:56.006Z,992.04
2019-03-09T04:13:56.010Z,991.97
2019-03-09T04:14:55.989Z,992.06
2019-03-09T04:15:56.003Z,991.97
2019-03-09T04:16:55.977Z,991.98
2019-03-09T04:17:55.957Z,991.98
2019-03-09T04:18:55.949Z,991.88
2019-03-09T04:19:55.931Z,992.06
2019-03-09T04:20:55.925Z,992.14
2019-03-09T04:21:55.925Z,992.00
2019-03-09T04:22:55.920Z,992.13
2019-03-09T04:23:55.891Z,992.03
2019-03-09T04:24:55.878Z,992.15
2019-03-09T04:25:55.868Z,992.06
2019-03-09T04:26:55.860Z,992.02
2019-03-09T04:27:55.866Z,992.06
2019-03-09T04:28:55.838Z,992.02
2019-03-09T04:29:55.833Z,992.01
2019-03-09T04:30:55.810Z,992.04
2019-03-09T04:31:55.803Z,992.12
2019-03-09T04:32:55.823Z,992.16
2019-03-09T04:33:55.784Z,992.30
2019-03-09T04:34:55.775Z,992.38
2019-03-09T04:35:55.774Z,992.34
2019-03-09T04:36:55.760Z,992.40
2019-03-09T04:37:55.742Z,992.47
2019-03-09T04:38:55.746Z,992.48
2019-03-09T04:39:55.721Z,992.55
2019-03-09T04:40:55.709Z,992.62
2019-03-09T04:41:55.698Z,992.62
2019-03-09T04:42:55.680Z,992.44
2019-03-09T04:43:55.673Z,992.68
2019-03-09T04:44:55.690Z,992.65
2019-03-09T04:45:55.649Z,992.67
2019-03-09T04:46:55.644Z,992.61
2019-03-09T04:47:55.637Z,992.67
2019-03-09T04:48:55.621Z,992.70
2019-03-09T04:49:55.619Z,992.75
2019-03-09T04:50:55.617Z,992.81
2019-03-09T04:51:55.587Z,992.72
2019-03-09T04:52:55.576Z,992.66
2019-03-09T04:53:55.562Z,992.73
2019-03-09T04:54:55.560Z,992.77
2019-03-09T04:55:55.589Z,992.68
2019-03-09T04:56:55.533Z,992.73
2019-03-09T04:57:55.524Z,992.72
2019-03-09T04:58:55.517Z,992.62
2019-03-09T04:59:55.507Z,992.78
2019-03-09T05:00:55.503Z,992.69
2019-03-09T05:01:55.508Z,992.63
2019-03-09T05:02:55.468Z,992.75
2019-03-09T05:03:55.477Z,992.74
2019-03-09T05:04:55.446Z,992.65
2019-03-09T05:05:55.440Z,992.72
2019-03-09T05:06:55.431Z,992.83
2019-03-09T05:07:55.418Z,992.77
2019-03-09T05:08:55.424Z,992.86
2019-03-09T05:09:55.402Z,992.81
2019-03-09T05:10:55.383Z,992.78
2019-03-09T05:11:55.372Z,992.82
2019-03-09T05:12:55.364Z,992.99
2019-03-09T05:13:55.381Z,992.99
2019-03-09T05:14:55.345Z,993.10
2019-03-09T05:15:55.330Z,993.08
2019-03-09T05:16:55.322Z,993.13
2019-03-09T05:17:55.306Z,993.07
2019-03-09T05:18:55.301Z,993.24
2019-03-09T05:19:55.315Z,993.23
2019-03-09T05:20:55.282Z,993.29
2019-03-09T05:21:55.270Z,993.35
2019-03-09T05:22:55.255Z,993.34
2019-03-09T05:23:55.246Z,993.30
2019-03-09T05:24:55.242Z,993.42
2019-03-09T05:25:55.267Z,993.34
2019-03-09T05:26:55.217Z,993.32
2019-03-09T05:27:55.202Z,993.27
2019-03-09T05:28:55.193Z,993.21
2019-03-09T05:29:55.176Z,993.21
2019-03-09T05:30:55.173Z,993.25
2019-03-09T05:31:55.177Z,993.27
2019-03-09T05:32:55.154Z,993.33
2019-03-09T05:33:55.141Z,993.38
2019-03-09T05:34:55.124Z,993.41
2019-03-09T05:35:55.115Z,993.38
2019-03-09T05:36:55.122Z,993.38
2019-03-09T05:37:55.091Z,993.44
2019-03-09T05:38:55.087Z,993.41
2019-03-09T05:39:55.074Z,993.41
2019-03-09T05:40:55.064Z,993.47
2019-03-09T05:41:55.074Z,993.47
2019-03-09T05:42:55.045Z,993.58
2019-03-09T05:43:55.060Z,993.53
2019-03-09T05:44:55.034Z,993.51
2019-03-09T05:45:55.012Z,993.56
2019-03-09T05:46:54.996Z,993.62
2019-03-09T05:47:54.985Z,993.61
2019-03-09T05:48:54.977Z,993.61
2019-03-09T05:49:54.983Z,993.70
2019-03-09T05:50:54.985Z,993.61
2019-03-09T05:51:55.006Z,993.63
2019-03-09T05:52:54.934Z,993.69
2019-03-09T05:53:54.952Z,993.65
2019-03-09T05:54:54.909Z,993.64
2019-03-09T05:55:54.900Z,993.61
2019-03-09T05:56:54.889Z,993.57
2019-03-09T05:57:54.894Z,993.48
2019-03-09T05:58:54.874Z,993.61
2019-03-09T05:59:54.860Z,993.46
2019-03-09T06:00:54.850Z,993.56
2019-03-09T06:01:54.836Z,993.52
2019-03-09T06:02:54.857Z,993.42
2019-03-09T06:03:54.824Z,993.47
2019-03-09T06:04:54.808Z,993.53
2019-03-09T06:05:54.809Z,993.56
2019-03-09T06:06:54.779Z,993.57
2019-03-09T06:07:54.772Z,993.58
2019-03-09T06:08:54.779Z,993.50
2019-03-09T06:09:54.758Z,993.55
2019-03-09T06:10:54.747Z,993.58
2019-03-09T06:11:54.742Z,993.51
2019-03-09T06:12:54.730Z,993.48
2019-03-09T06:13:54.758Z,993.38
2019-03-09T06:14:54.725Z,993.36
2019-03-09T06:15:54.687Z,993.35
2019-03-09T06:16:54.678Z,993.32
2019-03-09T06:17:54.671Z,993.39
2019-03-09T06:18:54.651Z,993.39
2019-03-09T06:19:54.651Z,993.33
2019-03-09T06:20:54.663Z,993.36
2019-03-09T06:21:54.622Z,993.40
2019-03-09T06:22:54.615Z,993.48
2019-03-09T06:23:54.608Z,993.47
2019-03-09T06:24:54.602Z,993.51
2019-03-09T06:25:54.584Z,993.52
2019-03-09T06:26:54.614Z,993.49
2019-03-09T06:27:54.557Z,993.49
2019-03-09T06:28:54.550Z,993.50
2019-03-09T06:29:54.533Z,993.48
2019-03-09T06:30:54.531Z,993.49
2019-03-09T06:31:54.541Z,993.48
2019-03-09T06:32:54.526Z,993.47
2019-03-09T06:33:54.496Z,993.47
2019-03-09T06:34:54.486Z,993.50
2019-03-09T06:35:54.481Z,993.56
2019-03-09T06:36:54.490Z,993.57
2019-03-09T06:37:55.827Z,993.67
2019-03-09T06:38:54.465Z,993.75
2019-03-09T06:39:54.435Z,993.78
2019-03-09T06:41:02.639Z,993.82
2019-03-09T06:41:55.403Z,993.89
2019-03-09T06:42:54.400Z,993.93
2019-03-09T06:43:54.415Z,993.92
2019-03-09T06:44:54.381Z,994.00
2019-03-09T06:45:54.370Z,994.02
2019-03-09T06:46:54.364Z,994.05
2019-03-09T06:47:54.362Z,994.05
2019-03-09T06:48:54.333Z,994.09
2019-03-09T06:49:54.344Z,994.22
2019-03-09T06:50:54.312Z,994.20
2019-03-09T06:51:54.309Z,994.20
2019-03-09T06:52:54.293Z,994.18
2019-03-09T06:53:54.276Z,994.22
2019-03-09T06:54:54.301Z,994.22
2019-03-09T06:55:54.267Z,994.23
2019-03-09T06:56:54.248Z,994.26
2019-03-09T06:57:54.248Z,994.26
2019-03-09T06:58:54.259Z,994.29
2019-03-09T06:59:54.213Z,994.41
2019-03-09T07:00:54.219Z,994.33
2019-03-09T07:01:54.195Z,994.36
2019-03-09T07:02:54.186Z,994.34
2019-03-09T07:03:54.173Z,994.35
2019-03-09T07:04:54.163Z,994.33
2019-03-09T07:05:54.199Z,994.40
2019-03-09T07:06:54.165Z,994.32
2019-03-09T07:07:54.129Z,994.45
2019-03-09T07:08:54.131Z,994.41
2019-03-09T07:09:54.147Z,994.47
2019-03-09T07:10:54.120Z,994.50
2019-03-09T07:11:54.084Z,994.47
2019-03-09T07:12:54.097Z,994.50
2019-03-09T07:13:54.060Z,994.61
2019-03-09T07:14:54.058Z,994.52
2019-03-09T07:15:54.045Z,994.54
2019-03-09T07:16:54.065Z,994.48
2019-03-09T07:17:54.028Z,994.48
2019-03-09T07:18:54.031Z,994.47
2019-03-09T07:19:53.997Z,994.51
2019-03-09T07:20:54.014Z,994.51
2019-03-09T07:21:54.013Z,994.64
2019-03-09T07:22:54.029Z,994.60
2019-03-09T07:23:53.972Z,994.59
2019-03-09T07:24:53.974Z,994.55
2019-03-09T07:25:53.931Z,994.52
2019-03-09T22:00:10.179Z,998.70
2019-03-09T22:01:11.870Z,998.64
2019-03-09T22:02:10.152Z,998.65
2019-03-09T22:03:11.880Z,998.70
2019-03-09T22:04:11.877Z,998.66
2019-03-09T22:05:11.884Z,998.68
2019-03-09T22:06:11.868Z,998.61
2019-03-09T22:07:11.876Z,998.60
2019-03-09T22:08:11.879Z,998.68
2019-03-09T22:09:11.878Z,998.59
2019-03-09T22:10:11.897Z,998.61
2019-03-09T22:11:11.890Z,998.62
2019-03-09T22:12:11.876Z,998.56
2019-03-09T22:13:11.865Z,998.64
2019-03-09T22:14:11.875Z,998.67
2019-03-09T22:15:11.958Z,998.65
2019-03-09T22:16:11.880Z,998.63
2019-03-09T22:17:11.892Z,998.67
2019-03-09T22:18:11.928Z,998.69
2019-03-09T22:19:11.875Z,998.67
2019-03-09T22:20:11.877Z,998.62
2019-03-09T22:21:11.878Z,998.61
2019-03-09T22:22:11.890Z,998.63
2019-03-09T22:23:11.881Z,998.60
2019-03-09T22:24:11.880Z,998.54
2019-03-09T22:25:11.866Z,998.56
2019-03-09T22:26:10.877Z,998.62
2019-03-09T22:27:11.374Z,998.60
2019-03-09T22:28:11.386Z,998.63
2019-03-09T22:29:11.377Z,998.64
2019-03-09T22:30:11.377Z,998.63
2019-03-09T22:31:11.375Z,998.63
2019-03-09T22:32:11.381Z,998.62
2019-03-09T22:33:11.366Z,998.64
2019-03-09T22:34:11.377Z,998.65
2019-03-09T22:35:11.375Z,998.63
2019-03-09T22:36:11.373Z,998.58
2019-03-09T22:37:11.373Z,998.63
2019-03-09T22:38:11.380Z,998.56
2019-03-09T22:39:11.399Z,998.65
2019-03-09T22:40:11.375Z,998.66
2019-03-09T22:41:11.382Z,998.61
2019-03-09T22:42:11.374Z,998.62
2019-03-09T22:43:11.387Z,998.63
2019-03-09T22:44:11.371Z,998.62
2019-03-09T22:45:11.378Z,998.57
2019-03-09T22:46:11.362Z,998.59
2019-03-09T22:47:11.921Z,998.62
2019-03-09T22:48:11.375Z,998.56
2019-03-09T22:49:11.385Z,998.61
2019-03-09T22:50:11.376Z,998.59
2019-03-09T22:51:11.372Z,998.56
2019-03-09T22:52:11.374Z,998.53
2019-03-09T22:53:11.412Z,998.53
2019-03-09T22:54:11.373Z,998.44
2019-03-09T22:55:11.383Z,998.45
2019-03-09T22:56:11.372Z,998.50
2019-03-09T22:57:11.361Z,998.41
2019-03-09T22:58:11.372Z,998.37
2019-03-09T22:59:11.403Z,998.39
2019-03-09T23:00:11.384Z,998.39
2019-03-09T23:01:11.368Z,998.39
2019-03-09T23:02:11.360Z,998.39
2019-03-09T23:03:11.369Z,998.45
2019-03-09T23:04:09.469Z,998.48
2019-03-09T23:05:11.383Z,998.47
2019-03-09T23:06:11.371Z,998.37
2019-03-09T23:07:11.369Z,998.47
2019-03-09T23:08:11.371Z,998.35
2019-03-09T23:09:11.382Z,998.38
2019-03-09T23:10:09.411Z,998.35
2019-03-09T23:11:11.371Z,998.40
2019-03-09T23:12:11.368Z,998.44
2019-03-09T23:13:10.876Z,998.38
2019-03-09T23:14:10.879Z,998.35
2019-03-09T23:15:10.868Z,998.44
2019-03-09T23:16:09.410Z,998.39
2019-03-09T23:17:10.870Z,998.42
2019-03-09T23:18:10.869Z,998.36
2019-03-09T23:19:10.870Z,998.38
2019-03-09T23:20:10.876Z,998.40
2019-03-09T23:21:10.874Z,998.40
2019-03-09T23:22:10.872Z,998.42
2019-03-09T23:23:10.870Z,998.33
2019-03-09T23:24:10.876Z,998.32
2019-03-09T23:25:10.868Z,998.35
2019-03-09T23:26:10.874Z,998.39
2019-03-09T23:27:10.866Z,998.35
2019-03-09T23:28:10.869Z,998.43
2019-03-09T23:29:10.872Z,998.37
2019-03-09T23:30:10.870Z,998.34
2019-03-09T23:31:10.869Z,998.41
2019-03-09T23:32:10.876Z,998.35
2019-03-09T23:33:10.857Z,998.36
2019-03-09T23:34:10.857Z,998.39
2019-03-09T23:35:10.866Z,998.28
2019-03-09T23:36:10.872Z,998.33
2019-03-09T23:37:10.880Z,998.29
2019-03-09T23:38:10.857Z,998.24
2019-03-09T23:39:10.867Z,998.22
2019-03-09T23:40:10.867Z,998.23
2019-03-09T23:41:10.871Z,998.28
2019-03-09T23:42:10.879Z,998.22
2019-03-09T23:43:10.872Z,998.26
2019-03-09T23:44:10.866Z,998.23
2019-03-09T23:45:10.856Z,998.21
2019-03-09T23:46:10.864Z,998.17
2019-03-09T23:47:10.864Z,998.17
2019-03-09T23:48:10.876Z,998.18
2019-03-09T23:49:10.870Z,998.14
2019-03-09T23:50:10.875Z,998.16
2019-03-09T23:51:10.866Z,998.09
2019-03-09T23:52:10.867Z,998.14
2019-03-09T23:53:10.871Z,998.14
2019-03-09T23:54:10.867Z,998.13
2019-03-09T23:55:20.760Z,998.15
2019-03-09T23:56:13.616Z,998.15
2019-03-09T23:57:10.875Z,998.10
2019-03-09T23:58:10.866Z,998.12
2019-03-09T23:59:09.866Z,998.11
